createdAt,value
2023-09-22T00:00:02.385Z,99810
2023-09-22T00:10:02.416Z,99820
2023-09-22T00:15:02.410Z,99820
2023-09-22T00:20:02.403Z,99830
2023-09-22T00:30:02.412Z,99840
2023-09-22T00:40:02.419Z,99830
2023-09-22T00:55:02.385Z,99840
2023-09-22T01:00:02.416Z,99830
2023-09-22T01:05:02.433Z,99830
2023-09-22T01:10:02.431Z,99830
2023-09-22T01:15:02.434Z,99840
2023-09-22T01:20:02.426Z,99850
2023-09-22T01:40:02.493Z,99880
2023-09-22T01:45:02.447Z,99870
2023-09-22T01:55:02.530Z,99890
2023-09-22T02:00:02.436Z,99900
2023-09-22T02:05:02.547Z,99900
2023-09-22T02:10:02.440Z,99890
2023-09-22T02:15:02.444Z,99880
2023-09-22T02:20:02.435Z,99900
2023-09-22T02:25:02.499Z,99900
2023-09-22T02:45:02.441Z,99910
2023-09-22T02:55:02.502Z,99890
2023-09-22T03:00:02.464Z,99900
2023-09-22T03:05:02.474Z,99900
2023-09-22T03:10:02.436Z,99900
2023-09-22T03:15:02.462Z,99900
2023-09-22T03:20:02.449Z,99900
2023-09-22T03:30:02.479Z,99900
2023-09-22T03:35:02.461Z,99900
2023-09-22T03:40:02.486Z,99890
2023-09-22T03:45:02.484Z,99890
2023-09-22T03:55:02.597Z,99900
2023-09-22T04:00:02.473Z,99900
2023-09-22T04:05:02.488Z,99900
2023-09-22T04:10:02.516Z,99900
2023-09-22T04:20:02.527Z,99910
2023-09-22T04:25:02.509Z,99910
2023-09-22T04:30:02.491Z,99910
2023-09-22T04:35:02.501Z,99910
2023-09-22T04:40:02.522Z,99910
2023-09-22T04:45:04.006Z,99920
2023-09-22T05:15:02.535Z,99910
2023-09-22T05:20:02.509Z,99930
2023-09-22T05:30:02.526Z,99940
2023-09-22T05:35:02.540Z,99940
2023-09-22T05:40:02.555Z,99940
2023-09-22T05:45:02.522Z,99930
2023-09-22T05:55:02.601Z,99950
2023-09-22T06:00:02.504Z,99950
2023-09-22T06:20:02.524Z,99960
2023-09-22T06:25:02.639Z,99970
2023-09-22T06:35:02.577Z,99950
2023-09-22T06:45:02.552Z,99980
2023-09-22T06:50:02.545Z,99980
2023-09-22T07:00:02.535Z,99980
2023-09-22T07:05:02.566Z,99980
2023-09-22T07:10:02.800Z,99980
2023-09-22T07:15:02.557Z,99980
2023-09-22T07:20:02.557Z,99990
2023-09-22T07:25:02.608Z,99990
2023-09-22T07:30:02.552Z,100000
2023-09-22T07:35:02.565Z,100000
2023-09-22T07:40:02.618Z,100000
2023-09-22T07:45:02.593Z,100030
2023-09-22T07:50:02.552Z,100040
2023-09-22T07:55:02.574Z,100030
2023-09-22T08:00:02.608Z,100040
2023-09-22T08:05:02.559Z,100040
2023-09-22T08:10:02.707Z,100040
2023-09-22T08:15:02.566Z,100050
2023-09-22T08:25:02.639Z,100060
2023-09-22T08:30:02.574Z,100060
2023-09-22T08:35:02.561Z,100050
2023-09-22T08:40:02.657Z,100050
2023-09-22T08:45:02.567Z,100050
2023-09-22T08:50:02.640Z,100050
2023-09-22T09:00:02.603Z,100050
2023-09-22T09:05:02.573Z,100050
2023-09-22T09:10:02.696Z,100070
2023-09-22T09:15:02.935Z,100070
2023-09-22T09:20:02.605Z,100070
2023-09-22T09:25:02.666Z,100090
2023-09-22T09:30:02.631Z,100090
2023-09-22T09:35:02.596Z,100100
2023-09-22T09:40:02.690Z,100100
2023-09-22T09:45:02.634Z,100090
2023-09-22T09:50:02.582Z,100080
2023-09-22T09:55:02.738Z,100080
2023-09-22T10:00:02.604Z,100070
2023-09-22T10:05:02.613Z,100090
2023-09-22T10:10:02.651Z,100060
2023-09-22T10:15:02.627Z,100050
2023-09-22T10:20:02.644Z,100050
2023-09-22T10:25:02.679Z,100040
2023-09-22T10:30:02.618Z,100030
2023-09-22T10:35:02.671Z,100040
2023-09-22T10:40:02.704Z,100050
2023-09-22T10:45:02.618Z,100020
2023-09-22T10:50:02.619Z,100010
2023-09-22T10:55:02.660Z,100030
2023-09-22T11:00:02.638Z,100060
2023-09-22T11:05:03.737Z,100040
2023-09-22T11:10:02.636Z,100020
2023-09-22T11:15:02.613Z,100040
2023-09-22T11:20:02.649Z,100040
2023-09-22T11:25:02.623Z,100050
2023-09-22T11:30:02.664Z,100040
2023-09-22T11:35:23.806Z,100050
2023-09-22T11:40:02.657Z,100060
2023-09-22T11:45:02.648Z,100070
2023-09-22T11:50:02.668Z,100070
2023-09-22T11:55:02.634Z,100090
2023-09-22T12:00:02.652Z,100080
2023-09-22T12:05:02.664Z,100080
2023-09-22T12:10:02.676Z,100080
2023-09-22T12:15:02.674Z,100100
2023-09-22T12:20:02.648Z,100100
2023-09-22T12:25:02.667Z,100090
2023-09-22T12:30:02.890Z,100090
2023-09-22T12:35:02.659Z,100120
2023-09-22T12:40:02.674Z,100120
2023-09-22T12:45:02.655Z,100110
2023-09-22T12:50:02.711Z,100110
2023-09-22T12:55:02.686Z,100090
2023-09-22T13:00:02.679Z,100120
2023-09-22T13:05:03.069Z,100110
2023-09-22T13:10:02.677Z,100110
2023-09-22T13:15:02.698Z,100110
2023-09-22T13:20:02.694Z,100110
2023-09-22T13:25:02.695Z,100110
2023-09-22T13:30:02.694Z,100110
2023-09-22T13:35:02.701Z,100110
2023-09-22T13:40:02.686Z,100120
2023-09-22T13:45:02.720Z,100120
2023-09-22T13:50:02.767Z,100130
2023-09-22T13:55:02.714Z,100130
2023-09-22T14:00:02.707Z,100120
2023-09-22T14:05:02.766Z,100130
2023-09-22T14:10:02.688Z,100140
2023-09-22T14:15:02.708Z,100150
2023-09-22T14:20:02.745Z,100150
2023-09-22T14:25:02.692Z,100140
2023-09-22T14:30:02.773Z,100150
2023-09-22T14:35:02.694Z,100150
2023-09-22T14:40:02.964Z,100140
2023-09-22T14:45:02.698Z,100140
2023-09-22T14:50:02.789Z,100140
2023-09-22T14:55:02.732Z,100150
2023-09-22T15:10:02.726Z,100160
2023-09-22T15:15:02.791Z,100160
2023-09-22T15:20:02.732Z,100180
2023-09-22T15:25:02.848Z,100180
2023-09-22T15:35:02.796Z,100190
2023-09-22T15:40:02.738Z,100200
2023-09-22T15:45:02.758Z,100200
2023-09-22T15:50:02.805Z,100220
2023-09-22T15:55:02.723Z,100240
2023-09-22T16:00:02.771Z,100250
2023-09-22T16:05:02.952Z,100250
2023-09-22T16:35:02.815Z,100280
2023-09-22T16:40:04.243Z,100290
2023-09-22T16:55:02.773Z,100280
2023-09-22T17:05:02.808Z,100260
2023-09-22T17:10:02.774Z,100280
2023-09-22T17:15:02.775Z,100280
2023-09-22T17:20:02.835Z,100290
2023-09-22T17:25:02.779Z,100290
2023-09-22T17:30:02.779Z,100300
2023-09-22T17:35:02.827Z,100290
2023-09-22T17:40:02.816Z,100300
2023-09-22T17:50:02.844Z,100310
2023-09-22T17:55:02.832Z,100320
2023-09-22T18:00:02.857Z,100320
2023-09-22T18:05:02.853Z,100320
2023-09-22T18:10:02.821Z,100320
2023-09-22T18:15:02.789Z,100330
2023-09-22T18:20:02.870Z,100350
2023-09-22T18:30:02.796Z,100350
2023-09-22T18:40:02.825Z,100350
2023-09-22T18:45:02.824Z,100370
2023-09-22T19:15:02.817Z,100380
2023-09-22T19:30:02.863Z,100400
2023-09-22T19:45:02.901Z,100420
2023-09-22T19:55:02.901Z,100430
2023-09-22T20:00:02.832Z,100440
2023-09-22T20:05:02.898Z,100440
2023-09-22T20:10:02.835Z,100440
2023-09-22T20:20:02.918Z,100450
2023-09-22T20:25:02.843Z,100450
2023-09-22T20:30:02.862Z,100450
2023-09-22T20:45:02.867Z,100460
2023-09-22T20:50:02.941Z,100460
2023-09-22T20:55:02.889Z,100470
2023-09-22T21:05:02.973Z,100480
2023-09-22T21:10:02.866Z,100490
2023-09-22T21:15:02.871Z,100500
2023-09-22T21:20:02.954Z,100520
2023-09-22T21:25:02.882Z,100520
2023-09-22T21:40:02.899Z,100540
2023-09-22T21:45:02.881Z,100540
2023-09-22T21:50:02.952Z,100550
2023-09-22T21:55:02.873Z,100540
2023-09-22T22:00:02.887Z,100540
2023-09-22T22:15:02.887Z,100550
2023-09-22T22:25:02.905Z,100560
2023-09-22T22:30:02.882Z,100560
2023-09-22T22:45:02.911Z,100570
2023-09-22T23:00:02.914Z,100600
2023-09-22T23:05:03.014Z,100600
2023-09-22T23:30:02.928Z,100640
2023-09-22T23:35:02.949Z,100650
2023-09-22T23:40:02.921Z,100660
2023-09-22T23:45:02.941Z,100670
2023-09-22T23:50:03.000Z,100680
2023-09-22T23:55:02.926Z,100680
